Stratton, Ohio
Current Conditions -  °F | °C
As of 7:47 PM on Tuesday 27 Jan 2015 (Local Time) from KBVI Reporting Station
Overcast Overcast  
Wind Chill: 13°   Ceiling: 1400
Heat Index: 19°   Visibility: 10mi
Dew Point: 14°   Wind: 5mph
Humidity: 80%   Direction: 320°NW
Pressure: 30.07"   Gusts: NA
Location:  40.52°N, 80.63°W
Report Text: KBVI 280047Z 32004KT 10SM OVC014 M07/M10 A3007
Loading
Personal Weather Stations






























Interactive Weather Map New forecast layout! Learn more

10-Day Weather Forecast

Advertisements
Track Severe Weather on mobile